createdAt,value
2023-05-05T00:02:16.452Z,100597.11
2023-05-05T00:04:44.373Z,100595.16
2023-05-05T00:07:12.163Z,100595.55
2023-05-05T00:09:40.014Z,100594.39
2023-05-05T00:12:08.055Z,100595.79
2023-05-05T00:14:36.158Z,100596.49
2023-05-05T00:17:04.181Z,100594.93
2023-05-05T00:19:32.327Z,100594.38
2023-05-05T00:22:00.394Z,100597.99
2023-05-05T00:24:28.083Z,100600.41
2023-05-05T00:26:55.960Z,100598.39
2023-05-05T00:29:23.867Z,100598.89
2023-05-05T00:31:52.577Z,100595.95
2023-05-05T00:34:21.064Z,100592.60
2023-05-05T00:36:49.651Z,100589.76
2023-05-05T00:39:17.714Z,100592.40
2023-05-05T00:41:45.706Z,100594.28
2023-05-05T00:44:13.691Z,100592.84
2023-05-05T00:46:41.937Z,100589.61
2023-05-05T00:49:10.234Z,100586.09
2023-05-05T00:51:38.276Z,100589.32
2023-05-05T00:54:06.170Z,100590.52
2023-05-05T00:56:34.755Z,100590.14
2023-05-05T00:59:02.741Z,100592.91
2023-05-05T01:01:30.731Z,100594.00
2023-05-05T01:03:58.788Z,100593.45
2023-05-05T01:06:54.165Z,100597.20
2023-05-05T01:09:46.212Z,100594.25
2023-05-05T01:12:32.557Z,100591.95
2023-05-05T01:15:06.434Z,100596.21
2023-05-05T01:17:42.659Z,100596.89
2023-05-05T01:20:25.612Z,100594.27
2023-05-05T01:23:00.501Z,100588.77
2023-05-05T01:26:05.704Z,100588.58
2023-05-05T01:29:03.033Z,100585.29
2023-05-05T01:31:53.720Z,100580.78
2023-05-05T01:34:28.167Z,100581.38
2023-05-05T01:37:43.369Z,100584.53
2023-05-05T01:40:13.670Z,100585.06
2023-05-05T01:42:43.546Z,100583.13
2023-05-05T01:45:12.797Z,100584.26
2023-05-05T01:47:44.046Z,100580.66
2023-05-05T01:50:13.783Z,100581.38
2023-05-05T01:52:42.670Z,100578.63
2023-05-05T01:55:13.003Z,100583.39
2023-05-05T01:57:42.967Z,100584.61
2023-05-05T02:00:11.908Z,100581.48
2023-05-05T02:02:46.466Z,100582.56
2023-05-05T02:05:16.483Z,100585.67
2023-05-05T02:07:46.095Z,100586.73
2023-05-05T02:10:15.174Z,100588.70
2023-05-05T02:12:47.262Z,100590.96
2023-05-05T02:15:16.614Z,100587.58
2023-05-05T02:17:46.426Z,100583.89
2023-05-05T02:20:15.578Z,100578.41
2023-05-05T02:22:44.085Z,100581.50
2023-05-05T02:25:12.050Z,100579.84
2023-05-05T02:27:44.289Z,100575.54
2023-05-05T02:30:15.869Z,100568.70
2023-05-05T02:32:56.880Z,100562.08
2023-05-05T02:35:37.303Z,100561.08
2023-05-05T02:38:09.792Z,100564.06
2023-05-05T02:40:43.535Z,100564.73
2023-05-05T02:43:16.821Z,100566.44
2023-05-05T02:45:45.114Z,100562.73
2023-05-05T02:48:14.164Z,100564.32
2023-05-05T02:50:42.688Z,100564.52
2023-05-05T02:53:27.483Z,100563.73
2023-05-05T02:56:12.995Z,100562.20
2023-05-05T02:58:54.457Z,100563.37
2023-05-05T03:01:46.753Z,100564.74
2023-05-05T03:04:17.544Z,100567.71
2023-05-05T03:06:56.606Z,100572.59
2023-05-05T03:09:25.524Z,100576.76
2023-05-05T03:12:03.986Z,100578.29
2023-05-05T03:14:41.504Z,100579.73
2023-05-05T03:17:12.545Z,100577.91
2023-05-05T03:19:44.651Z,100577.67
2023-05-05T03:22:12.899Z,100579.90
2023-05-05T03:24:43.513Z,100582.61
2023-05-05T03:27:11.702Z,100584.05
2023-05-05T03:29:40.534Z,100583.98
2023-05-05T03:32:12.132Z,100584.50
2023-05-05T03:34:40.611Z,100587.16
2023-05-05T03:37:08.423Z,100588.95
2023-05-05T03:39:37.620Z,100588.45
2023-05-05T03:42:06.076Z,100584.65
2023-05-05T03:44:34.378Z,100585.18
2023-05-05T03:47:02.271Z,100589.39
2023-05-05T03:49:30.701Z,100588.95
2023-05-05T03:51:59.081Z,100593.04
2023-05-05T03:54:27.060Z,100590.65
2023-05-05T03:56:56.313Z,100590.88
2023-05-05T03:59:24.065Z,100589.38
2023-05-05T04:01:51.934Z,100586.92
2023-05-05T04:04:20.013Z,100585.96
2023-05-05T04:06:48.704Z,100588.64
2023-05-05T04:09:16.535Z,100587.96
2023-05-05T04:11:44.588Z,100588.92
2023-05-05T04:14:12.648Z,100590.64
2023-05-05T04:16:40.707Z,100591.81
2023-05-05T04:19:09.252Z,100591.45
2023-05-05T04:21:37.236Z,100591.08
2023-05-05T04:24:05.581Z,100594.10
2023-05-05T04:26:33.511Z,100599.96
2023-05-05T04:29:01.419Z,100601.14
2023-05-05T04:31:29.499Z,100603.98
2023-05-05T04:33:57.517Z,100604.73
2023-05-05T04:36:25.403Z,100606.64
2023-05-05T04:38:53.395Z,100608.28
2023-05-05T04:41:21.405Z,100609.27
2023-05-05T04:43:49.690Z,100613.35
2023-05-05T04:46:17.547Z,100613.30
2023-05-05T04:48:46.101Z,100613.41
2023-05-05T04:51:14.318Z,100613.21
2023-05-05T04:53:42.254Z,100616.97
2023-05-05T04:56:10.248Z,100618.30
2023-05-05T04:58:38.123Z,100620.77
2023-05-05T05:01:06.905Z,100620.20
2023-05-05T05:03:34.998Z,100622.23
2023-05-05T05:06:03.136Z,100625.14
2023-05-05T05:08:31.147Z,100626.91
2023-05-05T05:11:00.826Z,100631.43
2023-05-05T05:13:28.777Z,100629.63
2023-05-05T05:15:56.707Z,100628.29
2023-05-05T05:18:24.694Z,100630.63
2023-05-05T05:20:52.900Z,100635.98
2023-05-05T05:23:24.352Z,100636.95
2023-05-05T05:25:52.446Z,100637.30
2023-05-05T05:28:21.450Z,100638.14
2023-05-05T05:30:52.938Z,100643.98
2023-05-05T05:33:21.465Z,100647.73
2023-05-05T05:35:50.040Z,100648.65
2023-05-05T05:38:18.735Z,100646.39
2023-05-05T05:40:47.074Z,100650.35
2023-05-05T05:43:15.325Z,100649.48
2023-05-05T05:45:45.877Z,100650.20
2023-05-05T05:48:13.886Z,100653.90
2023-05-05T05:50:41.919Z,100656.86
2023-05-05T05:53:10.296Z,100657.20
2023-05-05T05:55:38.293Z,100658.29
2023-05-05T05:58:06.154Z,100661.51
2023-05-05T06:00:34.208Z,100662.10
2023-05-05T06:03:04.636Z,100655.36
2023-05-05T06:05:34.442Z,100656.84
2023-05-05T06:08:02.524Z,100661.77
2023-05-05T06:10:31.162Z,100663.45
2023-05-05T06:13:03.017Z,100662.80
2023-05-05T06:15:31.365Z,100658.17
2023-05-05T06:18:01.402Z,100657.41
2023-05-05T06:20:29.526Z,100653.44
2023-05-05T06:22:57.524Z,100655.23
2023-05-05T06:25:26.879Z,100651.44
2023-05-05T06:27:54.822Z,100653.08
2023-05-05T06:30:22.803Z,100656.96
2023-05-05T06:32:50.807Z,100658.25
2023-05-05T06:35:18.649Z,100653.73
2023-05-05T06:37:46.487Z,100654.98
2023-05-05T06:40:14.439Z,100656.15
2023-05-05T06:42:42.378Z,100656.14
2023-05-05T06:45:12.558Z,100652.98
2023-05-05T06:47:41.800Z,100646.05
2023-05-05T06:50:10.317Z,100643.40
2023-05-05T06:52:38.402Z,100647.37
2023-05-05T06:55:06.913Z,100646.76
2023-05-05T06:57:34.716Z,100649.38
2023-05-05T07:00:07.474Z,100654.66
2023-05-05T07:02:35.896Z,100651.58
2023-05-05T07:05:04.353Z,100653.73
2023-05-05T07:07:32.619Z,100659.45
2023-05-05T07:10:00.900Z,100657.23
2023-05-05T07:12:33.222Z,100656.71
2023-05-05T07:15:09.428Z,100660.55
2023-05-05T07:17:43.730Z,100659.19
2023-05-05T07:20:12.205Z,100656.91
2023-05-05T07:22:40.051Z,100654.38
2023-05-05T07:25:08.769Z,100657.40
2023-05-05T07:27:37.400Z,100658.84
2023-05-05T07:30:11.169Z,100656.52
2023-05-05T07:32:41.426Z,100656.67
2023-05-05T07:35:09.450Z,100658.92
2023-05-05T07:37:37.437Z,100658.88
2023-05-05T07:40:06.153Z,100660.77
2023-05-05T07:42:34.256Z,100655.88
2023-05-05T07:45:02.241Z,100654.84
2023-05-05T07:47:30.311Z,100655.34
2023-05-05T07:49:58.685Z,100653.41
2023-05-05T07:52:43.371Z,100652.05
2023-05-05T07:55:12.825Z,100651.80
2023-05-05T07:57:40.932Z,100654.43
2023-05-05T08:00:10.254Z,100653.68
2023-05-05T08:02:41.578Z,100652.92
2023-05-05T08:05:10.076Z,100649.77
2023-05-05T08:07:41.217Z,100647.96
2023-05-05T08:10:11.623Z,100646.20
2023-05-05T08:12:40.063Z,100645.29
2023-05-05T08:15:08.966Z,100646.47
2023-05-05T08:17:48.742Z,100649.05
2023-05-05T08:20:18.860Z,100646.33
2023-05-05T08:22:47.374Z,100646.48
2023-05-05T08:25:15.434Z,100648.38
2023-05-05T08:27:43.515Z,100646.66
2023-05-05T08:30:12.008Z,100647.41
2023-05-05T08:32:40.166Z,100650.91
2023-05-05T08:35:08.674Z,100646.64
2023-05-05T08:37:36.870Z,100644.36
2023-05-05T08:40:05.731Z,100640.35
2023-05-05T08:42:38.428Z,100641.66
2023-05-05T08:45:09.032Z,100640.42
2023-05-05T08:47:38.480Z,100638.33
2023-05-05T08:50:10.108Z,100633.17
2023-05-05T08:52:40.586Z,100636.52
2023-05-05T08:55:08.544Z,100633.53
2023-05-05T08:57:44.173Z,100632.86
2023-05-05T09:00:13.416Z,100632.11
2023-05-05T09:02:43.147Z,100629.45
2023-05-05T09:05:11.441Z,100630.67
2023-05-05T09:07:41.461Z,100630.23
2023-05-05T09:10:11.461Z,100628.05
2023-05-05T09:12:40.485Z,100625.54
2023-05-05T09:15:10.547Z,100620.73
2023-05-05T09:17:39.908Z,100622.46
2023-05-05T09:20:10.474Z,100625.73
2023-05-05T09:22:43.652Z,100623.86
2023-05-05T09:25:14.426Z,100622.90
2023-05-05T09:27:49.651Z,100619.86
2023-05-05T09:30:23.828Z,100620.06
2023-05-05T09:32:55.471Z,100617.21
2023-05-05T09:35:23.952Z,100618.36
2023-05-05T09:37:51.937Z,100618.02
2023-05-05T09:40:21.345Z,100615.73
2023-05-05T09:43:02.172Z,100610.35
2023-05-05T09:45:30.237Z,100610.38
2023-05-05T09:48:00.120Z,100608.38
2023-05-05T09:50:30.898Z,100605.09
2023-05-05T09:53:01.548Z,100599.95
2023-05-05T09:55:33.479Z,100596.90
2023-05-05T09:58:33.933Z,100594.83
2023-05-05T10:01:01.712Z,100598.27
2023-05-05T10:03:29.606Z,100597.59
2023-05-05T10:05:59.688Z,100598.67
2023-05-05T10:08:30.672Z,100595.09
2023-05-05T10:11:00.900Z,100589.95
2023-05-05T10:13:29.993Z,100593.82
2023-05-05T10:15:58.081Z,100591.79
2023-05-05T10:18:28.248Z,100591.73
2023-05-05T10:20:57.657Z,100588.13
2023-05-05T10:23:34.890Z,100581.42
2023-05-05T10:26:06.350Z,100578.33
2023-05-05T10:28:40.141Z,100576.56
2023-05-05T10:31:25.017Z,100573.03
2023-05-05T10:34:03.406Z,100571.77
2023-05-05T10:36:31.864Z,100572.14
2023-05-05T10:39:00.653Z,100568.84
2023-05-05T10:41:28.773Z,100563.20
2023-05-05T10:43:57.677Z,100559.38
2023-05-05T10:46:27.020Z,100556.77
2023-05-05T10:49:28.629Z,100557.52
2023-05-05T10:52:10.052Z,100553.35
2023-05-05T10:55:09.395Z,100548.69
2023-05-05T10:57:41.693Z,100548.67
2023-05-05T11:00:10.296Z,100549.88
2023-05-05T11:02:38.432Z,100545.56
2023-05-05T11:05:18.273Z,100542.15
2023-05-05T11:07:49.882Z,100541.77
2023-05-05T11:10:23.409Z,100537.99
2023-05-05T11:12:54.398Z,100534.59
2023-05-05T11:15:22.371Z,100533.77
2023-05-05T11:17:51.087Z,100532.08
2023-05-05T11:20:39.939Z,100531.96
2023-05-05T11:23:08.049Z,100526.17
2023-05-05T11:25:42.024Z,100520.63
2023-05-05T11:28:12.809Z,100517.34
2023-05-05T11:30:59.361Z,100517.91
2023-05-05T11:33:37.633Z,100520.24
2023-05-05T11:36:08.870Z,100516.96
2023-05-05T11:38:52.304Z,100511.63
2023-05-05T11:41:50.963Z,100511.95
2023-05-05T11:44:20.289Z,100508.04
2023-05-05T11:46:51.190Z,100507.56
2023-05-05T11:49:32.584Z,100507.42
2023-05-05T11:52:12.412Z,100502.50
2023-05-05T11:54:49.001Z,100505.94
2023-05-05T11:57:21.098Z,100497.53
2023-05-05T11:59:55.005Z,100493.65
2023-05-05T12:02:23.857Z,100490.52
2023-05-05T12:04:52.695Z,100489.63
2023-05-05T12:07:23.550Z,100482.48
2023-05-05T12:09:52.187Z,100480.33
2023-05-05T12:12:20.456Z,100478.21
2023-05-05T12:14:52.398Z,100477.42
2023-05-05T12:17:22.146Z,100473.71
2023-05-05T12:19:54.510Z,100470.98
2023-05-05T12:22:26.759Z,100468.52
2023-05-05T12:25:01.134Z,100462.11
2023-05-05T12:27:29.746Z,100463.17
2023-05-05T12:30:11.670Z,100458.70
2023-05-05T12:32:40.081Z,100456.98
2023-05-05T12:35:09.619Z,100457.90
2023-05-05T12:37:38.089Z,100455.72
2023-05-05T12:40:07.303Z,100456.90
2023-05-05T12:42:40.020Z,100456.05
2023-05-05T12:45:17.441Z,100456.91
2023-05-05T12:47:45.479Z,100452.77
2023-05-05T12:50:13.433Z,100450.29
2023-05-05T12:52:45.264Z,100449.89
2023-05-05T12:55:13.322Z,100445.84
2023-05-05T12:58:01.413Z,100444.84
2023-05-05T13:00:29.299Z,100441.76
2023-05-05T13:02:58.096Z,100440.82
2023-05-05T13:05:31.584Z,100436.86
2023-05-05T13:07:59.802Z,100433.70
2023-05-05T13:10:31.461Z,100425.41
2023-05-05T13:12:59.599Z,100419.84
2023-05-05T13:15:27.928Z,100419.73
2023-05-05T13:18:02.803Z,100418.48
2023-05-05T13:20:30.728Z,100417.73
2023-05-05T13:22:58.578Z,100410.80
2023-05-05T13:25:26.840Z,100407.74
2023-05-05T13:27:54.623Z,100408.45
2023-05-05T13:30:22.680Z,100404.36
2023-05-05T13:32:50.626Z,100399.61
2023-05-05T13:35:18.440Z,100395.83
2023-05-05T13:37:47.562Z,100393.83
2023-05-05T13:40:15.553Z,100387.02
2023-05-05T13:42:43.415Z,100386.57
2023-05-05T13:45:12.195Z,100385.45
2023-05-05T13:47:41.957Z,100382.86
2023-05-05T13:50:10.335Z,100382.26
2023-05-05T13:52:38.601Z,100379.98
2023-05-05T13:55:07.324Z,100378.05
2023-05-05T13:57:40.554Z,100374.98
2023-05-05T14:00:09.093Z,100374.52
2023-05-05T14:02:37.198Z,100376.77
2023-05-05T14:05:05.456Z,100376.10
2023-05-05T14:07:33.290Z,100372.02
2023-05-05T14:10:01.181Z,100372.64
2023-05-05T14:12:29.125Z,100370.98
2023-05-05T14:14:56.977Z,100366.23
2023-05-05T14:17:25.558Z,100364.73
2023-05-05T14:19:53.393Z,100362.42
2023-05-05T14:22:21.375Z,100361.09
2023-05-05T14:24:49.380Z,100356.70
2023-05-05T14:27:17.234Z,100351.51
2023-05-05T14:29:44.977Z,100350.06
2023-05-05T14:32:12.831Z,100348.80
2023-05-05T14:34:40.630Z,100346.91
2023-05-05T14:37:08.452Z,100344.05
2023-05-05T14:39:36.314Z,100340.95
2023-05-05T14:42:04.462Z,100335.43
2023-05-05T14:44:32.281Z,100333.15
2023-05-05T14:47:00.211Z,100331.45
2023-05-05T14:49:28.098Z,100329.02
2023-05-05T14:51:56.862Z,100326.92
2023-05-05T14:54:28.790Z,100324.26
2023-05-05T14:56:56.917Z,100325.64
2023-05-05T14:59:24.937Z,100328.11
2023-05-05T15:01:53.056Z,100325.19
2023-05-05T15:04:21.019Z,100323.84
2023-05-05T15:06:48.807Z,100322.05
2023-05-05T15:09:18.171Z,100322.41
2023-05-05T15:11:46.116Z,100319.30
2023-05-05T15:14:13.973Z,100323.10
2023-05-05T15:16:41.949Z,100321.31
2023-05-05T15:19:09.909Z,100321.96
2023-05-05T15:21:37.898Z,100322.17
2023-05-05T15:24:06.212Z,100319.00
2023-05-05T15:26:34.017Z,100317.75
2023-05-05T15:29:01.882Z,100318.90
2023-05-05T15:31:29.723Z,100318.49
2023-05-05T15:33:57.619Z,100316.90
2023-05-05T15:36:25.872Z,100314.73
2023-05-05T15:38:53.722Z,100314.89
2023-05-05T15:41:21.588Z,100314.63
2023-05-05T15:43:49.344Z,100311.56
2023-05-05T15:46:17.265Z,100313.14
2023-05-05T15:48:45.415Z,100314.36
2023-05-05T15:51:13.315Z,100316.17
2023-05-05T15:53:41.592Z,100311.10
2023-05-05T15:56:11.620Z,100311.71
2023-05-05T15:58:39.374Z,100305.89
2023-05-05T16:01:07.326Z,100303.02
2023-05-05T16:03:35.408Z,100305.83
2023-05-05T16:06:03.594Z,100309.30
2023-05-05T16:08:32.087Z,100310.21
2023-05-05T16:10:59.907Z,100311.11
2023-05-05T16:13:27.877Z,100311.52
2023-05-05T16:15:56.089Z,100307.87
2023-05-05T16:18:24.017Z,100307.79
2023-05-05T16:20:51.925Z,100308.46
2023-05-05T16:23:19.940Z,100310.06
2023-05-05T16:25:47.909Z,100313.80
2023-05-05T16:28:15.907Z,100314.27
2023-05-05T16:30:43.644Z,100310.67
2023-05-05T16:33:11.677Z,100311.80
2023-05-05T16:35:39.583Z,100310.20
2023-05-05T16:38:07.540Z,100306.09
2023-05-05T16:40:37.720Z,100307.83
2023-05-05T16:43:06.240Z,100307.06
2023-05-05T16:45:34.116Z,100304.47
2023-05-05T16:48:01.998Z,100306.15
2023-05-05T16:50:29.956Z,100308.60
2023-05-05T16:52:57.882Z,100308.11
2023-05-05T16:55:25.994Z,100310.83
2023-05-05T16:57:53.859Z,100312.21
2023-05-05T17:00:21.705Z,100311.33
2023-05-05T17:02:50.063Z,100311.65
2023-05-05T17:05:18.077Z,100315.21
2023-05-05T17:07:48.118Z,100315.14
2023-05-05T17:10:16.309Z,100313.96
2023-05-05T17:12:44.217Z,100316.13
2023-05-05T17:15:12.049Z,100318.04
2023-05-05T17:17:41.547Z,100318.02
2023-05-05T17:20:11.308Z,100318.29
2023-05-05T17:22:39.222Z,100319.46
2023-05-05T17:25:07.498Z,100322.39
2023-05-05T17:27:35.513Z,100323.00
2023-05-05T17:30:04.022Z,100320.08
2023-05-05T17:32:31.922Z,100321.85
2023-05-05T17:34:59.955Z,100319.17
2023-05-05T17:37:28.255Z,100320.48
2023-05-05T17:39:56.105Z,100321.86
2023-05-05T17:42:26.968Z,100319.88
2023-05-05T17:44:54.816Z,100322.38
2023-05-05T17:47:24.187Z,100324.65
2023-05-05T17:49:56.308Z,100326.71
2023-05-05T17:52:27.526Z,100325.19
2023-05-05T17:54:55.449Z,100327.31
2023-05-05T17:57:23.446Z,100326.66
2023-05-05T17:59:53.281Z,100328.11
2023-05-05T18:02:21.419Z,100329.59
2023-05-05T18:04:49.307Z,100332.89
2023-05-05T18:07:17.245Z,100335.91
2023-05-05T18:09:45.219Z,100336.64
2023-05-05T18:12:13.014Z,100339.59
2023-05-05T18:14:40.995Z,100342.02
2023-05-05T18:17:08.874Z,100346.58
2023-05-05T18:19:37.038Z,100347.40
2023-05-05T18:22:05.194Z,100351.02
2023-05-05T18:24:32.984Z,100349.38
2023-05-05T18:27:00.897Z,100354.14
2023-05-05T18:29:28.922Z,100355.43
2023-05-05T18:31:59.058Z,100353.13
2023-05-05T18:34:27.509Z,100354.98
2023-05-05T18:36:55.270Z,100351.84
2023-05-05T18:39:23.752Z,100351.05
2023-05-05T18:41:51.817Z,100353.58
2023-05-05T18:44:20.152Z,100354.35
2023-05-05T18:46:49.389Z,100356.80
2023-05-05T18:49:17.688Z,100356.87
2023-05-05T18:51:45.784Z,100359.95
2023-05-05T18:54:13.732Z,100363.11
2023-05-05T18:56:42.290Z,100364.28
2023-05-05T18:59:10.170Z,100362.48
2023-05-05T19:01:38.093Z,100364.27
2023-05-05T19:04:15.581Z,100365.27
2023-05-05T19:06:52.443Z,100365.70
2023-05-05T19:09:20.570Z,100365.02
2023-05-05T19:11:48.572Z,100366.45
2023-05-05T19:14:17.624Z,100364.81
2023-05-05T19:16:45.709Z,100365.08
2023-05-05T19:19:13.741Z,100366.84
2023-05-05T19:21:41.741Z,100366.27
2023-05-05T19:24:09.792Z,100368.46
2023-05-05T19:26:37.916Z,100365.88
2023-05-05T19:29:06.066Z,100364.16
2023-05-05T19:31:34.069Z,100365.95
2023-05-05T19:34:03.941Z,100360.98
2023-05-05T19:36:32.407Z,100359.35
2023-05-05T19:39:01.893Z,100359.84
2023-05-05T19:41:31.892Z,100362.08
2023-05-05T19:44:00.213Z,100361.98
2023-05-05T19:46:28.166Z,100361.52
2023-05-05T19:48:56.218Z,100363.13
2023-05-05T19:51:24.168Z,100363.62
2023-05-05T19:53:55.111Z,100362.41
2023-05-05T19:56:24.179Z,100363.91
2023-05-05T19:59:00.650Z,100364.13
2023-05-05T20:01:29.430Z,100358.69
2023-05-05T20:03:57.611Z,100358.93
2023-05-05T20:06:27.123Z,100359.73
2023-05-05T20:08:55.522Z,100358.49
2023-05-05T20:11:23.423Z,100356.48
2023-05-05T20:13:51.856Z,100356.98
2023-05-05T20:16:21.498Z,100357.85
2023-05-05T20:18:50.432Z,100356.77
2023-05-05T20:21:18.614Z,100358.32
2023-05-05T20:23:46.759Z,100356.84
2023-05-05T20:26:14.583Z,100352.96
2023-05-05T20:28:45.101Z,100351.33
2023-05-05T20:31:14.402Z,100350.11
2023-05-05T20:33:42.528Z,100350.66
2023-05-05T20:36:11.140Z,100352.70
2023-05-05T20:38:39.005Z,100350.65
2023-05-05T20:41:06.975Z,100349.98
2023-05-05T20:43:36.360Z,100349.47
2023-05-05T20:46:04.371Z,100351.55
2023-05-05T20:48:32.199Z,100349.55
2023-05-05T20:51:03.641Z,100351.92
2023-05-05T20:53:32.236Z,100349.83
2023-05-05T20:56:00.152Z,100348.07
2023-05-05T20:58:28.109Z,100348.94
2023-05-05T21:00:56.129Z,100345.31
2023-05-05T21:03:24.143Z,100346.59
2023-05-05T21:05:52.126Z,100345.32
2023-05-05T21:08:19.960Z,100344.80
2023-05-05T21:10:47.979Z,100344.47
2023-05-05T21:13:16.263Z,100345.99
2023-05-05T21:15:44.254Z,100345.68
2023-05-05T21:18:12.328Z,100347.27
2023-05-05T21:20:40.326Z,100351.27
2023-05-05T21:23:08.257Z,100350.77
2023-05-05T21:25:37.512Z,100349.66
2023-05-05T21:28:05.469Z,100349.28
2023-05-05T21:30:33.448Z,100352.89
2023-05-05T21:33:01.299Z,100351.12
2023-05-05T21:35:29.313Z,100351.19
2023-05-05T21:37:57.244Z,100351.04
2023-05-05T21:40:26.347Z,100350.77
2023-05-05T21:42:54.272Z,100346.33
2023-05-05T21:45:22.290Z,100349.69
2023-05-05T21:47:50.862Z,100350.73
2023-05-05T21:50:18.950Z,100351.73
2023-05-05T21:52:47.065Z,100349.64
2023-05-05T21:55:15.087Z,100348.89
2023-05-05T21:57:43.197Z,100351.78
2023-05-05T22:00:16.589Z,100351.77
2023-05-05T22:02:45.153Z,100350.80
2023-05-05T22:05:13.217Z,100352.32
2023-05-05T22:07:41.103Z,100353.61
2023-05-05T22:10:09.742Z,100352.45
2023-05-05T22:12:37.938Z,100350.33
2023-05-05T22:15:06.610Z,100347.77
2023-05-05T22:17:34.507Z,100346.88
2023-05-05T22:20:03.844Z,100346.44
2023-05-05T22:22:31.902Z,100346.09
2023-05-05T22:24:59.749Z,100344.15
2023-05-05T22:27:27.612Z,100341.84
2023-05-05T22:29:55.499Z,100337.73
2023-05-05T22:32:23.276Z,100334.59
2023-05-05T22:34:51.177Z,100330.60
2023-05-05T22:37:19.101Z,100329.77
2023-05-05T22:39:46.968Z,100325.76
2023-05-05T22:42:14.776Z,100323.69
2023-05-05T22:44:42.605Z,100323.34
2023-05-05T22:47:10.561Z,100323.24
2023-05-05T22:49:38.667Z,100320.38
2023-05-05T22:52:06.621Z,100321.66
2023-05-05T22:54:34.424Z,100319.02
2023-05-05T22:57:02.362Z,100314.92
2023-05-05T22:59:30.230Z,100315.20
2023-05-05T23:01:58.319Z,100314.54
2023-05-05T23:04:26.347Z,100314.87
2023-05-05T23:06:54.325Z,100314.62
2023-05-05T23:09:22.177Z,100314.25
2023-05-05T23:11:50.016Z,100310.91
2023-05-05T23:14:19.412Z,100309.55
2023-05-05T23:16:47.331Z,100308.93
2023-05-05T23:19:15.242Z,100309.27
2023-05-05T23:21:52.627Z,100304.13
2023-05-05T23:24:21.925Z,100299.63
2023-05-05T23:26:49.841Z,100299.65
2023-05-05T23:29:18.389Z,100296.25
2023-05-05T23:31:46.975Z,100288.75
2023-05-05T23:34:14.927Z,100290.42
2023-05-05T23:36:42.963Z,100289.02
2023-05-05T23:39:11.081Z,100288.77
2023-05-05T23:41:38.972Z,100287.96
2023-05-05T23:44:07.124Z,100287.65
2023-05-05T23:46:35.054Z,100289.35
2023-05-05T23:49:02.929Z,100287.67
2023-05-05T23:51:31.120Z,100288.28
2023-05-05T23:53:59.007Z,100287.11
2023-05-05T23:56:26.875Z,100287.15
2023-05-05T23:58:54.725Z,100286.58
